Orbital elements of EKRAN 2 DEB
| Launched | 19 September 1977 |
| Flight ended | – |
| Launch site | Tyuratam Missile and Space Center, Kazakhstan (Also known as Baikonur Cosmodrome) |
| Owner | Commonwealth of Independent States (former USSR) |
| NORAD ID | 11581 |
| Date fetched |
Epoch osculation |
Inc. [°] |
Ecc. | RA asc node [hr] |
Arg Peri. [°] |
Mean anom [°] |
Mean motion [rev/day] |
Abs. mag |
| Date fetched |
Epoch osculation |
Inc. [°] |
Ecc. | RA asc node [hr] |
Arg Peri. [°] |
Mean anom [°] |
Mean motion [rev/day] |
Abs. mag |
| 2026 May 05 17:57 | 2026 May 05 03:06:51 | 4.2493 | 0.00083 | 18.3098 | 242.8259 | 153.8853 | 1.00354 | – |
| 2026 May 04 17:57 | 2026 Apr 30 13:35:12 | 4.2614 | 0.00080 | 18.3140 | 243.9996 | 153.8853 | 1.00354 | – |
| 2026 May 03 17:57 | 2026 Apr 30 13:35:12 | 4.2614 | 0.00080 | 18.3140 | 243.9996 | 153.8853 | 1.00354 | – |
| 2026 May 02 17:57 | 2026 Apr 30 13:35:12 | 4.2614 | 0.00080 | 18.3140 | 243.9996 | 153.8853 | 1.00354 | – |
| 2026 May 01 17:56 | 2026 Apr 30 13:35:12 | 4.2614 | 0.00080 | 18.3140 | 243.9996 | 153.8853 | 1.00354 | – |
| 2026 Apr 30 17:56 | 2026 Apr 30 13:35:12 | 4.2614 | 0.00080 | 18.3140 | 243.9996 | 153.8853 | 1.00354 | – |
| 2026 Apr 29 17:57 | 2026 Apr 24 12:07:31 | 4.2772 | 0.00075 | 18.3194 | 245.7754 | 153.8853 | 1.00354 | – |
| 2026 Apr 28 17:56 | 2026 Apr 24 12:07:31 | 4.2772 | 0.00075 | 18.3194 | 245.7754 | 153.8853 | 1.00354 | – |
| 2026 Apr 27 17:58 | 2026 Apr 24 12:07:31 | 4.2772 | 0.00075 | 18.3194 | 245.7754 | 153.8853 | 1.00354 | – |
| 2026 Apr 26 17:58 | 2026 Apr 24 12:07:31 | 4.2772 | 0.00075 | 18.3194 | 245.7754 | 153.8853 | 1.00354 | – |
| 2026 Apr 25 17:58 | 2026 Apr 24 12:07:31 | 4.2772 | 0.00075 | 18.3194 | 245.7754 | 153.8853 | 1.00354 | – |
| 2026 Apr 24 17:59 | 2026 Apr 24 12:07:31 | 4.2772 | 0.00075 | 18.3194 | 245.7754 | 153.8853 | 1.00354 | – |
| 2026 Apr 23 17:57 | 2026 Apr 19 12:19:58 | 4.2899 | 0.00071 | 18.3239 | 248.2531 | 153.8853 | 1.00354 | – |
| 2026 Apr 22 17:57 | 2026 Apr 19 12:19:58 | 4.2899 | 0.00071 | 18.3239 | 248.2531 | 153.8853 | 1.00354 | – |
| 2026 Apr 21 17:57 | 2026 Apr 19 12:19:58 | 4.2899 | 0.00071 | 18.3239 | 248.2531 | 153.8853 | 1.00354 | – |
| 2026 Apr 20 17:57 | 2026 Apr 19 12:19:58 | 4.2899 | 0.00071 | 18.3239 | 248.2531 | 153.8853 | 1.00354 | – |
| 2026 Apr 19 17:58 | 2026 Apr 19 12:19:58 | 4.2899 | 0.00071 | 18.3239 | 248.2531 | 153.8853 | 1.00354 | – |
| 2026 Apr 18 17:56 | 2026 Apr 13 02:18:33 | 4.3064 | 0.00067 | 18.3297 | 252.6845 | 153.8853 | 1.00354 | – |
| 2026 Apr 16 17:57 | 2026 Apr 13 02:18:33 | 4.3064 | 0.00067 | 18.3297 | 252.6845 | 153.8853 | 1.00354 | – |
| 2026 Apr 14 17:57 | 2026 Apr 13 02:18:33 | 4.3064 | 0.00067 | 18.3297 | 252.6845 | 153.8853 | 1.00354 | – |
| 2026 Apr 13 17:57 | 2026 Apr 13 02:18:33 | 4.3064 | 0.00067 | 18.3297 | 252.6845 | 153.8853 | 1.00354 | – |
| 2026 Apr 12 17:57 | 2026 Apr 08 12:47:09 | 4.3183 | 0.00065 | 18.3337 | 255.9803 | 153.8853 | 1.00354 | – |
| 2026 Apr 11 17:57 | 2026 Apr 08 12:47:09 | 4.3183 | 0.00065 | 18.3337 | 255.9803 | 153.8853 | 1.00354 | – |
| 2026 Apr 10 17:58 | 2026 Apr 08 12:47:09 | 4.3183 | 0.00065 | 18.3337 | 255.9803 | 153.8853 | 1.00354 | – |
| 2026 Apr 09 18:01 | 2026 Apr 08 12:47:09 | 4.3183 | 0.00065 | 18.3337 | 255.9803 | 153.8853 | 1.00354 | – |
| 2026 Apr 08 17:57 | 2026 Apr 08 12:47:09 | 4.3183 | 0.00065 | 18.3337 | 255.9803 | 153.8853 | 1.00354 | – |